sensor_id;sensor_type;location;lat;lon;timestamp;temperature;humidity
17483;DHT22;8858;52.308;20.994;2023-03-23T00:01:08;10.60;99.90
17483;DHT22;8858;52.308;20.994;2023-03-23T00:03:36;10.60;99.90
17483;DHT22;8858;52.308;20.994;2023-03-23T00:06:08;10.60;99.90
17483;DHT22;8858;52.308;20.994;2023-03-23T00:08:36;10.60;99.90
17483;DHT22;8858;52.308;20.994;2023-03-23T00:11:16;10.60;99.90
17483;DHT22;8858;52.308;20.994;2023-03-23T00:13:46;10.60;99.90
17483;DHT22;8858;52.308;20.994;2023-03-23T00:16:19;10.60;99.90
17483;DHT22;8858;52.308;20.994;2023-03-23T00:18:47;10.60;99.90
17483;DHT22;8858;52.308;20.994;2023-03-23T00:21:20;10.50;99.90
17483;DHT22;8858;52.308;20.994;2023-03-23T00:23:55;10.50;99.90
17483;DHT22;8858;52.308;20.994;2023-03-23T00:26:22;10.50;99.90
17483;DHT22;8858;52.308;20.994;2023-03-23T00:28:50;10.50;99.90
17483;DHT22;8858;52.308;20.994;2023-03-23T00:31:18;10.50;99.90
17483;DHT22;8858;52.308;20.994;2023-03-23T00:33:46;10.50;99.90
17483;DHT22;8858;52.308;20.994;2023-03-23T00:36:14;10.50;99.90
17483;DHT22;8858;52.308;20.994;2023-03-23T00:38:45;10.50;99.90
17483;DHT22;8858;52.308;20.994;2023-03-23T00:41:13;10.40;99.90
17483;DHT22;8858;52.308;20.994;2023-03-23T00:43:43;10.40;99.90
17483;DHT22;8858;52.308;20.994;2023-03-23T00:46:10;10.40;99.90
17483;DHT22;8858;52.308;20.994;2023-03-23T00:48:39;10.40;99.90
17483;DHT22;8858;52.308;20.994;2023-03-23T00:51:11;10.40;99.90
17483;DHT22;8858;52.308;20.994;2023-03-23T00:53:40;10.50;99.90
17483;DHT22;8858;52.308;20.994;2023-03-23T00:56:09;10.40;99.90
17483;DHT22;8858;52.308;20.994;2023-03-23T00:58:36;10.40;99.90
17483;DHT22;8858;52.308;20.994;2023-03-23T01:01:07;10.40;99.90
17483;DHT22;8858;52.308;20.994;2023-03-23T01:03:36;10.40;99.90
17483;DHT22;8858;52.308;20.994;2023-03-23T01:06:05;10.40;99.90
17483;DHT22;8858;52.308;20.994;2023-03-23T01:08:34;10.50;99.90
17483;DHT22;8858;52.308;20.994;2023-03-23T01:11:06;10.50;99.90
17483;DHT22;8858;52.308;20.994;2023-03-23T01:13:36;10.50;99.90
17483;DHT22;8858;52.308;20.994;2023-03-23T01:16:03;10.50;99.90
17483;DHT22;8858;52.308;20.994;2023-03-23T01:18:31;10.50;99.90
17483;DHT22;8858;52.308;20.994;2023-03-23T01:21:04;10.50;99.90
17483;DHT22;8858;52.308;20.994;2023-03-23T01:23:32;10.60;99.90
17483;DHT22;8858;52.308;20.994;2023-03-23T01:26:04;10.60;99.90
17483;DHT22;8858;52.308;20.994;2023-03-23T01:28:35;10.60;99.90
17483;DHT22;8858;52.308;20.994;2023-03-23T01:31:04;10.60;99.90
17483;DHT22;8858;52.308;20.994;2023-03-23T01:33:35;10.60;99.90
17483;DHT22;8858;52.308;20.994;2023-03-23T01:36:06;10.60;99.90
17483;DHT22;8858;52.308;20.994;2023-03-23T01:38:34;10.70;99.90
17483;DHT22;8858;52.308;20.994;2023-03-23T01:41:03;10.70;99.90
17483;DHT22;8858;52.308;20.994;2023-03-23T01:43:31;10.80;99.90
17483;DHT22;8858;52.308;20.994;2023-03-23T01:46:00;10.80;99.90
17483;DHT22;8858;52.308;20.994;2023-03-23T01:48:29;10.80;99.90
17483;DHT22;8858;52.308;20.994;2023-03-23T01:51:03;10.90;99.90
17483;DHT22;8858;52.308;20.994;2023-03-23T01:53:36;10.90;99.90
17483;DHT22;8858;52.308;20.994;2023-03-23T01:56:06;10.90;99.90
17483;DHT22;8858;52.308;20.994;2023-03-23T01:58:38;10.90;99.90
17483;DHT22;8858;52.308;20.994;2023-03-23T02:01:09;10.90;99.90
17483;DHT22;8858;52.308;20.994;2023-03-23T02:03:44;11.00;99.90
17483;DHT22;8858;52.308;20.994;2023-03-23T02:06:14;11.00;99.90
17483;DHT22;8858;52.308;20.994;2023-03-23T02:09:01;11.00;99.90
17483;DHT22;8858;52.308;20.994;2023-03-23T02:11:30;11.00;99.90
17483;DHT22;8858;52.308;20.994;2023-03-23T02:14:00;11.00;99.90
17483;DHT22;8858;52.308;20.994;2023-03-23T02:16:34;11.00;99.90
17483;DHT22;8858;52.308;20.994;2023-03-23T02:19:17;11.00;99.90
17483;DHT22;8858;52.308;20.994;2023-03-23T02:24:58;11.00;99.90
17483;DHT22;8858;52.308;20.994;2023-03-23T02:28:05;11.00;99.90
17483;DHT22;8858;52.308;20.994;2023-03-23T02:30:46;11.00;99.90
17483;DHT22;8858;52.308;20.994;2023-03-23T02:33:41;11.00;99.90
17483;DHT22;8858;52.308;20.994;2023-03-23T02:36:20;11.00;99.90
17483;DHT22;8858;52.308;20.994;2023-03-23T02:38:57;11.00;99.90
17483;DHT22;8858;52.308;20.994;2023-03-23T02:41:30;11.00;99.90
17483;DHT22;8858;52.308;20.994;2023-03-23T02:44:02;11.00;99.90
17483;DHT22;8858;52.308;20.994;2023-03-23T02:46:34;11.00;99.90
17483;DHT22;8858;52.308;20.994;2023-03-23T02:49:06;11.10;99.90
17483;DHT22;8858;52.308;20.994;2023-03-23T02:51:37;11.10;99.90
17483;DHT22;8858;52.308;20.994;2023-03-23T02:54:07;11.10;99.90
17483;DHT22;8858;52.308;20.994;2023-03-23T02:56:35;11.10;99.90
17483;DHT22;8858;52.308;20.994;2023-03-23T02:59:10;11.10;99.90
17483;DHT22;8858;52.308;20.994;2023-03-23T03:02:04;11.10;99.90
17483;DHT22;8858;52.308;20.994;2023-03-23T03:04:34;11.10;99.90
17483;DHT22;8858;52.308;20.994;2023-03-23T03:07:29;11.10;99.90
17483;DHT22;8858;52.308;20.994;2023-03-23T03:09:59;11.10;99.90
17483;DHT22;8858;52.308;20.994;2023-03-23T03:12:35;11.10;99.90
17483;DHT22;8858;52.308;20.994;2023-03-23T03:15:12;11.10;99.90
17483;DHT22;8858;52.308;20.994;2023-03-23T03:17:48;11.10;99.90
17483;DHT22;8858;52.308;20.994;2023-03-23T03:20:20;11.10;99.90
17483;DHT22;8858;52.308;20.994;2023-03-23T03:22:49;11.00;99.90
17483;DHT22;8858;52.308;20.994;2023-03-23T03:25:19;11.00;99.90
17483;DHT22;8858;52.308;20.994;2023-03-23T03:27:52;11.00;99.90
17483;DHT22;8858;52.308;20.994;2023-03-23T03:30:30;10.90;99.90
17483;DHT22;8858;52.308;20.994;2023-03-23T03:33:01;10.90;99.90
17483;DHT22;8858;52.308;20.994;2023-03-23T03:35:34;10.90;99.90
17483;DHT22;8858;52.308;20.994;2023-03-23T03:38:07;10.90;99.90
17483;DHT22;8858;52.308;20.994;2023-03-23T03:40:34;10.80;99.90
17483;DHT22;8858;52.308;20.994;2023-03-23T03:43:03;10.80;99.90
17483;DHT22;8858;52.308;20.994;2023-03-23T03:45:35;10.80;99.90
17483;DHT22;8858;52.308;20.994;2023-03-23T03:48:02;10.80;99.90
17483;DHT22;8858;52.308;20.994;2023-03-23T03:50:31;10.80;99.90
17483;DHT22;8858;52.308;20.994;2023-03-23T03:52:59;10.80;99.90
17483;DHT22;8858;52.308;20.994;2023-03-23T03:55:27;10.80;99.90
17483;DHT22;8858;52.308;20.994;2023-03-23T03:57:55;10.80;99.90
17483;DHT22;8858;52.308;20.994;2023-03-23T04:00:26;10.70;99.90
17483;DHT22;8858;52.308;20.994;2023-03-23T04:02:54;10.70;99.90
17483;DHT22;8858;52.308;20.994;2023-03-23T04:05:37;10.70;99.90
17483;DHT22;8858;52.308;20.994;2023-03-23T04:08:04;10.70;99.90
17483;DHT22;8858;52.308;20.994;2023-03-23T04:10:32;10.70;99.90
17483;DHT22;8858;52.308;20.994;2023-03-23T04:13:00;10.70;99.90
17483;DHT22;8858;52.308;20.994;2023-03-23T04:15:48;10.70;99.90
17483;DHT22;8858;52.308;20.994;2023-03-23T04:18:17;10.70;99.90
17483;DHT22;8858;52.308;20.994;2023-03-23T04:20:50;10.70;99.90
17483;DHT22;8858;52.308;20.994;2023-03-23T04:23:20;10.70;99.90
17483;DHT22;8858;52.308;20.994;2023-03-23T04:25:51;10.70;99.90
17483;DHT22;8858;52.308;20.994;2023-03-23T04:28:19;10.70;99.90
17483;DHT22;8858;52.308;20.994;2023-03-23T04:31:10;10.70;99.90
17483;DHT22;8858;52.308;20.994;2023-03-23T04:33:43;10.70;99.90
17483;DHT22;8858;52.308;20.994;2023-03-23T04:36:13;10.70;99.90
17483;DHT22;8858;52.308;20.994;2023-03-23T04:38:53;10.70;99.90
17483;DHT22;8858;52.308;20.994;2023-03-23T04:41:23;10.70;99.90
17483;DHT22;8858;52.308;20.994;2023-03-23T04:44:02;10.70;99.90
17483;DHT22;8858;52.308;20.994;2023-03-23T04:46:36;10.70;99.90
17483;DHT22;8858;52.308;20.994;2023-03-23T04:49:08;10.70;99.90
17483;DHT22;8858;52.308;20.994;2023-03-23T04:51:39;10.70;99.90
17483;DHT22;8858;52.308;20.994;2023-03-23T04:54:16;10.70;99.90
17483;DHT22;8858;52.308;20.994;2023-03-23T04:56:48;10.70;99.90
17483;DHT22;8858;52.308;20.994;2023-03-23T04:59:16;10.70;99.90
17483;DHT22;8858;52.308;20.994;2023-03-23T05:01:58;10.70;99.90
17483;DHT22;8858;52.308;20.994;2023-03-23T05:04:27;10.70;99.90
17483;DHT22;8858;52.308;20.994;2023-03-23T05:07:11;10.70;99.90
17483;DHT22;8858;52.308;20.994;2023-03-23T05:09:46;10.70;99.90
17483;DHT22;8858;52.308;20.994;2023-03-23T05:12:17;10.70;99.90
17483;DHT22;8858;52.308;20.994;2023-03-23T05:14:51;10.70;99.90
17483;DHT22;8858;52.308;20.994;2023-03-23T05:17:24;10.70;99.90
17483;DHT22;8858;52.308;20.994;2023-03-23T05:19:55;10.80;99.90
17483;DHT22;8858;52.308;20.994;2023-03-23T05:22:51;10.80;99.90
17483;DHT22;8858;52.308;20.994;2023-03-23T05:25:24;10.90;99.90
17483;DHT22;8858;52.308;20.994;2023-03-23T05:28:05;10.90;99.90
17483;DHT22;8858;52.308;20.994;2023-03-23T05:30:49;10.90;99.90
17483;DHT22;8858;52.308;20.994;2023-03-23T05:33:18;10.90;99.90
17483;DHT22;8858;52.308;20.994;2023-03-23T05:36:08;10.90;99.90
17483;DHT22;8858;52.308;20.994;2023-03-23T05:39:03;10.90;99.90
17483;DHT22;8858;52.308;20.994;2023-03-23T05:41:58;11.00;99.90
17483;DHT22;8858;52.308;20.994;2023-03-23T05:44:35;11.00;99.90
17483;DHT22;8858;52.308;20.994;2023-03-23T05:47:03;11.00;99.90
17483;DHT22;8858;52.308;20.994;2023-03-23T05:49:37;11.00;99.90
17483;DHT22;8858;52.308;20.994;2023-03-23T05:52:08;11.00;99.90
17483;DHT22;8858;52.308;20.994;2023-03-23T05:54:36;11.10;99.90
17483;DHT22;8858;52.308;20.994;2023-03-23T05:57:03;11.10;99.90
17483;DHT22;8858;52.308;20.994;2023-03-23T05:59:44;11.10;99.90
17483;DHT22;8858;52.308;20.994;2023-03-23T06:02:20;11.20;99.90
17483;DHT22;8858;52.308;20.994;2023-03-23T06:04:49;11.30;99.90
17483;DHT22;8858;52.308;20.994;2023-03-23T06:07:27;11.30;99.90
17483;DHT22;8858;52.308;20.994;2023-03-23T06:10:01;11.30;99.90
17483;DHT22;8858;52.308;20.994;2023-03-23T06:12:36;11.40;99.90
17483;DHT22;8858;52.308;20.994;2023-03-23T06:15:23;11.40;99.90
17483;DHT22;8858;52.308;20.994;2023-03-23T06:17:59;11.50;99.90
17483;DHT22;8858;52.308;20.994;2023-03-23T06:20:35;11.60;99.90
17483;DHT22;8858;52.308;20.994;2023-03-23T06:23:20;11.60;99.90
17483;DHT22;8858;52.308;20.994;2023-03-23T06:25:53;11.60;99.90
17483;DHT22;8858;52.308;20.994;2023-03-23T06:28:25;11.70;99.90
17483;DHT22;8858;52.308;20.994;2023-03-23T06:30:53;11.70;99.90
17483;DHT22;8858;52.308;20.994;2023-03-23T06:33:22;11.70;99.90
17483;DHT22;8858;52.308;20.994;2023-03-23T06:36:12;11.70;99.90
17483;DHT22;8858;52.308;20.994;2023-03-23T06:38:48;11.70;99.90
17483;DHT22;8858;52.308;20.994;2023-03-23T06:41:22;11.80;99.90
17483;DHT22;8858;52.308;20.994;2023-03-23T06:43:51;11.80;99.90
17483;DHT22;8858;52.308;20.994;2023-03-23T06:46:26;11.90;99.90
17483;DHT22;8858;52.308;20.994;2023-03-23T06:49:16;11.90;99.90
17483;DHT22;8858;52.308;20.994;2023-03-23T06:51:50;12.00;99.90
17483;DHT22;8858;52.308;20.994;2023-03-23T06:54:17;11.90;99.90
17483;DHT22;8858;52.308;20.994;2023-03-23T06:56:46;12.00;99.90
17483;DHT22;8858;52.308;20.994;2023-03-23T06:59:14;12.00;99.90
17483;DHT22;8858;52.308;20.994;2023-03-23T07:01:42;12.10;99.90
17483;DHT22;8858;52.308;20.994;2023-03-23T07:04:12;12.10;99.90
17483;DHT22;8858;52.308;20.994;2023-03-23T07:06:50;12.20;99.90
17483;DHT22;8858;52.308;20.994;2023-03-23T07:09:18;12.30;99.90
17483;DHT22;8858;52.308;20.994;2023-03-23T07:11:46;12.30;99.90
17483;DHT22;8858;52.308;20.994;2023-03-23T07:14:22;12.40;99.90
17483;DHT22;8858;52.308;20.994;2023-03-23T07:16:50;12.40;99.90
17483;DHT22;8858;52.308;20.994;2023-03-23T07:19:17;12.40;99.90
17483;DHT22;8858;52.308;20.994;2023-03-23T07:21:46;12.50;99.90
17483;DHT22;8858;52.308;20.994;2023-03-23T07:24:13;12.50;99.90
17483;DHT22;8858;52.308;20.994;2023-03-23T07:27:05;12.60;99.90
17483;DHT22;8858;52.308;20.994;2023-03-23T07:29:32;12.70;99.90
17483;DHT22;8858;52.308;20.994;2023-03-23T07:32:11;12.80;99.90
17483;DHT22;8858;52.308;20.994;2023-03-23T07:34:39;12.90;99.90
17483;DHT22;8858;52.308;20.994;2023-03-23T07:37:15;12.90;99.90
17483;DHT22;8858;52.308;20.994;2023-03-23T07:39:46;12.90;99.90
17483;DHT22;8858;52.308;20.994;2023-03-23T07:42:16;13.00;99.90
17483;DHT22;8858;52.308;20.994;2023-03-23T07:44:50;13.10;99.90
17483;DHT22;8858;52.308;20.994;2023-03-23T07:47:17;13.20;99.90
17483;DHT22;8858;52.308;20.994;2023-03-23T07:49:47;13.30;99.90
17483;DHT22;8858;52.308;20.994;2023-03-23T07:52:43;13.40;99.90
17483;DHT22;8858;52.308;20.994;2023-03-23T07:55:12;13.50;99.90
17483;DHT22;8858;52.308;20.994;2023-03-23T07:58:07;13.60;99.90
17483;DHT22;8858;52.308;20.994;2023-03-23T08:00:35;13.80;99.90
17483;DHT22;8858;52.308;20.994;2023-03-23T08:03:06;13.80;99.90
17483;DHT22;8858;52.308;20.994;2023-03-23T08:05:57;13.90;99.90
17483;DHT22;8858;52.308;20.994;2023-03-23T08:08:49;13.90;99.90
17483;DHT22;8858;52.308;20.994;2023-03-23T08:11:35;14.00;99.90
17483;DHT22;8858;52.308;20.994;2023-03-23T08:14:10;14.20;99.90
17483;DHT22;8858;52.308;20.994;2023-03-23T08:17:00;14.40;99.90
17483;DHT22;8858;52.308;20.994;2023-03-23T08:19:27;14.60;99.90
17483;DHT22;8858;52.308;20.994;2023-03-23T08:22:16;14.70;99.90
17483;DHT22;8858;52.308;20.994;2023-03-23T08:25:09;14.80;99.90
17483;DHT22;8858;52.308;20.994;2023-03-23T08:27:53;14.90;99.90
17483;DHT22;8858;52.308;20.994;2023-03-23T08:30:38;15.00;99.90
17483;DHT22;8858;52.308;20.994;2023-03-23T08:33:25;15.00;99.90
17483;DHT22;8858;52.308;20.994;2023-03-23T08:36:01;15.00;99.90
17483;DHT22;8858;52.308;20.994;2023-03-23T08:38:52;15.10;99.90
17483;DHT22;8858;52.308;20.994;2023-03-23T08:41:40;15.10;99.90
17483;DHT22;8858;52.308;20.994;2023-03-23T08:44:37;15.10;99.90
17483;DHT22;8858;52.308;20.994;2023-03-23T08:47:24;15.10;99.90
17483;DHT22;8858;52.308;20.994;2023-03-23T08:50:12;15.10;99.90
17483;DHT22;8858;52.308;20.994;2023-03-23T08:53:04;15.20;99.90
17483;DHT22;8858;52.308;20.994;2023-03-23T08:55:56;15.20;99.90
17483;DHT22;8858;52.308;20.994;2023-03-23T08:59:01;15.20;99.90
17483;DHT22;8858;52.308;20.994;2023-03-23T09:01:40;15.20;99.90
17483;DHT22;8858;52.308;20.994;2023-03-23T09:04:25;15.30;99.90
17483;DHT22;8858;52.308;20.994;2023-03-23T09:07:29;15.30;99.90
17483;DHT22;8858;52.308;20.994;2023-03-23T09:09:56;15.30;99.90
17483;DHT22;8858;52.308;20.994;2023-03-23T09:12:23;15.30;99.90
17483;DHT22;8858;52.308;20.994;2023-03-23T09:14:50;15.30;99.90
17483;DHT22;8858;52.308;20.994;2023-03-23T09:17:17;15.30;99.90
17483;DHT22;8858;52.308;20.994;2023-03-23T09:19:46;15.30;99.90
17483;DHT22;8858;52.308;20.994;2023-03-23T09:22:15;15.40;99.90
17483;DHT22;8858;52.308;20.994;2023-03-23T09:24:45;15.40;99.90
17483;DHT22;8858;52.308;20.994;2023-03-23T09:27:12;15.50;99.90
17483;DHT22;8858;52.308;20.994;2023-03-23T09:29:40;15.60;99.90
17483;DHT22;8858;52.308;20.994;2023-03-23T09:32:09;15.60;99.90
17483;DHT22;8858;52.308;20.994;2023-03-23T09:34:42;15.60;99.90
17483;DHT22;8858;52.308;20.994;2023-03-23T09:37:11;15.70;99.90
17483;DHT22;8858;52.308;20.994;2023-03-23T09:39:43;15.70;99.90
17483;DHT22;8858;52.308;20.994;2023-03-23T09:42:21;15.70;99.90
17483;DHT22;8858;52.308;20.994;2023-03-23T09:45:02;15.80;99.90
17483;DHT22;8858;52.308;20.994;2023-03-23T09:47:40;15.80;99.90
17483;DHT22;8858;52.308;20.994;2023-03-23T09:50:11;16.00;99.90
17483;DHT22;8858;52.308;20.994;2023-03-23T09:52:47;16.00;99.90
17483;DHT22;8858;52.308;20.994;2023-03-23T09:55:18;16.10;99.90
17483;DHT22;8858;52.308;20.994;2023-03-23T09:57:51;16.20;99.90
17483;DHT22;8858;52.308;20.994;2023-03-23T10:00:25;16.40;99.90
17483;DHT22;8858;52.308;20.994;2023-03-23T10:03:00;16.40;99.90
17483;DHT22;8858;52.308;20.994;2023-03-23T10:05:33;16.50;99.90
17483;DHT22;8858;52.308;20.994;2023-03-23T10:08:08;16.60;99.90
17483;DHT22;8858;52.308;20.994;2023-03-23T10:10:50;16.60;99.90
17483;DHT22;8858;52.308;20.994;2023-03-23T10:13:43;16.60;99.90
17483;DHT22;8858;52.308;20.994;2023-03-23T10:16:17;16.70;99.90
17483;DHT22;8858;52.308;20.994;2023-03-23T10:18:49;16.70;99.90
17483;DHT22;8858;52.308;20.994;2023-03-23T10:21:22;16.80;99.90
17483;DHT22;8858;52.308;20.994;2023-03-23T10:23:57;16.80;99.90
17483;DHT22;8858;52.308;20.994;2023-03-23T10:26:35;16.90;99.90
17483;DHT22;8858;52.308;20.994;2023-03-23T10:29:13;16.90;99.90
17483;DHT22;8858;52.308;20.994;2023-03-23T10:31:43;17.00;99.90
17483;DHT22;8858;52.308;20.994;2023-03-23T10:34:15;17.20;99.90
17483;DHT22;8858;52.308;20.994;2023-03-23T10:36:54;17.40;99.90
17483;DHT22;8858;52.308;20.994;2023-03-23T10:39:29;17.50;99.90
17483;DHT22;8858;52.308;20.994;2023-03-23T10:41:57;17.60;99.90
17483;DHT22;8858;52.308;20.994;2023-03-23T10:44:33;17.70;99.90
17483;DHT22;8858;52.308;20.994;2023-03-23T10:47:02;17.80;99.90
17483;DHT22;8858;52.308;20.994;2023-03-23T10:49:35;17.90;99.90
17483;DHT22;8858;52.308;20.994;2023-03-23T10:52:12;18.00;99.90
17483;DHT22;8858;52.308;20.994;2023-03-23T10:54:51;18.10;99.90
17483;DHT22;8858;52.308;20.994;2023-03-23T10:57:23;18.10;99.90
17483;DHT22;8858;52.308;20.994;2023-03-23T10:59:51;18.10;99.90
17483;DHT22;8858;52.308;20.994;2023-03-23T11:02:20;18.10;99.90
17483;DHT22;8858;52.308;20.994;2023-03-23T11:05:18;18.10;99.90
17483;DHT22;8858;52.308;20.994;2023-03-23T11:07:53;18.20;99.90
17483;DHT22;8858;52.308;20.994;2023-03-23T11:10:25;18.30;99.90
17483;DHT22;8858;52.308;20.994;2023-03-23T11:12:57;18.40;99.90
17483;DHT22;8858;52.308;20.994;2023-03-23T11:15:29;18.40;99.90
17483;DHT22;8858;52.308;20.994;2023-03-23T11:17:58;18.40;99.90
17483;DHT22;8858;52.308;20.994;2023-03-23T11:20:27;18.30;99.90
17483;DHT22;8858;52.308;20.994;2023-03-23T11:23:20;18.30;99.90
17483;DHT22;8858;52.308;20.994;2023-03-23T11:25:55;18.20;99.90
17483;DHT22;8858;52.308;20.994;2023-03-23T11:28:29;18.10;99.90
17483;DHT22;8858;52.308;20.994;2023-03-23T11:30:57;18.10;99.90
17483;DHT22;8858;52.308;20.994;2023-03-23T11:33:36;18.30;99.90
17483;DHT22;8858;52.308;20.994;2023-03-23T11:36:06;18.40;99.90
17483;DHT22;8858;52.308;20.994;2023-03-23T11:38:39;18.60;99.90
17483;DHT22;8858;52.308;20.994;2023-03-23T11:41:11;18.80;99.90
17483;DHT22;8858;52.308;20.994;2023-03-23T11:43:40;18.90;99.90
17483;DHT22;8858;52.308;20.994;2023-03-23T11:46:15;19.00;99.90
17483;DHT22;8858;52.308;20.994;2023-03-23T11:48:51;19.00;99.90
17483;DHT22;8858;52.308;20.994;2023-03-23T11:51:26;19.00;99.90
17483;DHT22;8858;52.308;20.994;2023-03-23T11:53:59;19.10;99.90
17483;DHT22;8858;52.308;20.994;2023-03-23T11:56:31;19.30;99.90
17483;DHT22;8858;52.308;20.994;2023-03-23T11:59:00;19.30;99.90
17483;DHT22;8858;52.308;20.994;2023-03-23T12:01:40;19.40;99.90
17483;DHT22;8858;52.308;20.994;2023-03-23T12:04:33;19.50;99.90
17483;DHT22;8858;52.308;20.994;2023-03-23T12:07:14;19.60;99.90
17483;DHT22;8858;52.308;20.994;2023-03-23T12:09:48;19.60;99.90
17483;DHT22;8858;52.308;20.994;2023-03-23T12:12:33;19.50;99.90
17483;DHT22;8858;52.308;20.994;2023-03-23T12:15:11;19.60;99.90
17483;DHT22;8858;52.308;20.994;2023-03-23T12:17:54;19.70;99.90
17483;DHT22;8858;52.308;20.994;2023-03-23T12:20:37;19.70;99.90
17483;DHT22;8858;52.308;20.994;2023-03-23T12:23:15;19.80;99.90
17483;DHT22;8858;52.308;20.994;2023-03-23T12:26:16;20.00;99.90
17483;DHT22;8858;52.308;20.994;2023-03-23T12:29:12;20.20;99.90
17483;DHT22;8858;52.308;20.994;2023-03-23T12:31:47;20.30;99.90
17483;DHT22;8858;52.308;20.994;2023-03-23T12:34:27;20.40;99.90
17483;DHT22;8858;52.308;20.994;2023-03-23T12:37:18;20.60;99.90
17483;DHT22;8858;52.308;20.994;2023-03-23T12:40:09;20.60;99.90
17483;DHT22;8858;52.308;20.994;2023-03-23T12:42:52;20.70;99.90
17483;DHT22;8858;52.308;20.994;2023-03-23T12:45:41;20.70;99.90
17483;DHT22;8858;52.308;20.994;2023-03-23T12:48:13;20.70;99.90
17483;DHT22;8858;52.308;20.994;2023-03-23T12:50:47;20.70;99.90
17483;DHT22;8858;52.308;20.994;2023-03-23T12:53:19;20.70;99.90
17483;DHT22;8858;52.308;20.994;2023-03-23T12:55:52;20.90;99.90
17483;DHT22;8858;52.308;20.994;2023-03-23T12:58:23;21.00;99.90
17483;DHT22;8858;52.308;20.994;2023-03-23T13:00:57;21.00;99.90
17483;DHT22;8858;52.308;20.994;2023-03-23T13:03:30;20.90;99.90
17483;DHT22;8858;52.308;20.994;2023-03-23T13:06:04;20.80;99.90
17483;DHT22;8858;52.308;20.994;2023-03-23T13:08:35;20.60;99.90
17483;DHT22;8858;52.308;20.994;2023-03-23T13:11:08;20.60;99.90
17483;DHT22;8858;52.308;20.994;2023-03-23T13:13:44;20.40;99.90
17483;DHT22;8858;52.308;20.994;2023-03-23T13:16:20;20.20;99.90
17483;DHT22;8858;52.308;20.994;2023-03-23T13:18:59;20.00;99.90
17483;DHT22;8858;52.308;20.994;2023-03-23T13:21:30;19.80;99.90
17483;DHT22;8858;52.308;20.994;2023-03-23T13:24:01;19.70;99.90
17483;DHT22;8858;52.308;20.994;2023-03-23T13:26:30;19.60;99.90
17483;DHT22;8858;52.308;20.994;2023-03-23T13:28:59;19.50;99.90
17483;DHT22;8858;52.308;20.994;2023-03-23T13:31:34;19.50;99.90
17483;DHT22;8858;52.308;20.994;2023-03-23T13:34:05;19.30;99.90
17483;DHT22;8858;52.308;20.994;2023-03-23T13:36:36;19.30;99.90
17483;DHT22;8858;52.308;20.994;2023-03-23T13:39:06;19.20;99.90
17483;DHT22;8858;52.308;20.994;2023-03-23T13:41:46;19.20;99.90
17483;DHT22;8858;52.308;20.994;2023-03-23T13:44:19;19.00;99.90
17483;DHT22;8858;52.308;20.994;2023-03-23T13:47:07;19.00;99.90
17483;DHT22;8858;52.308;20.994;2023-03-23T13:49:46;19.00;99.90
17483;DHT22;8858;52.308;20.994;2023-03-23T13:52:17;18.90;99.90
17483;DHT22;8858;52.308;20.994;2023-03-23T13:54:47;18.90;99.90
17483;DHT22;8858;52.308;20.994;2023-03-23T13:57:24;18.90;99.90
17483;DHT22;8858;52.308;20.994;2023-03-23T13:59:57;18.90;99.90
17483;DHT22;8858;52.308;20.994;2023-03-23T14:02:33;18.80;99.90
17483;DHT22;8858;52.308;20.994;2023-03-23T14:05:28;18.70;99.90
17483;DHT22;8858;52.308;20.994;2023-03-23T14:08:11;18.60;99.90
17483;DHT22;8858;52.308;20.994;2023-03-23T14:10:41;18.50;99.90
17483;DHT22;8858;52.308;20.994;2023-03-23T14:13:16;18.40;99.90
17483;DHT22;8858;52.308;20.994;2023-03-23T14:15:53;18.40;99.90
17483;DHT22;8858;52.308;20.994;2023-03-23T14:18:28;18.30;99.90
17483;DHT22;8858;52.308;20.994;2023-03-23T14:20:57;18.20;99.90
17483;DHT22;8858;52.308;20.994;2023-03-23T14:23:24;18.10;99.90
17483;DHT22;8858;52.308;20.994;2023-03-23T14:25:56;18.00;99.90
17483;DHT22;8858;52.308;20.994;2023-03-23T14:28:31;18.00;99.90
17483;DHT22;8858;52.308;20.994;2023-03-23T14:30:58;17.90;99.90
17483;DHT22;8858;52.308;20.994;2023-03-23T14:33:27;17.80;99.90
17483;DHT22;8858;52.308;20.994;2023-03-23T14:35:57;17.80;99.90
17483;DHT22;8858;52.308;20.994;2023-03-23T14:38:25;17.70;99.90
17483;DHT22;8858;52.308;20.994;2023-03-23T14:41:01;17.70;99.90
17483;DHT22;8858;52.308;20.994;2023-03-23T14:43:32;17.60;99.90
17483;DHT22;8858;52.308;20.994;2023-03-23T14:46:05;17.60;99.90
17483;DHT22;8858;52.308;20.994;2023-03-23T14:48:38;17.50;99.90
17483;DHT22;8858;52.308;20.994;2023-03-23T14:51:06;17.40;99.90
17483;DHT22;8858;52.308;20.994;2023-03-23T14:53:37;17.40;99.90
17483;DHT22;8858;52.308;20.994;2023-03-23T14:56:11;17.40;99.90
17483;DHT22;8858;52.308;20.994;2023-03-23T14:58:43;17.30;99.90
17483;DHT22;8858;52.308;20.994;2023-03-23T15:01:14;17.30;99.90
17483;DHT22;8858;52.308;20.994;2023-03-23T15:03:51;17.20;99.90
17483;DHT22;8858;52.308;20.994;2023-03-23T15:06:21;17.20;99.90
17483;DHT22;8858;52.308;20.994;2023-03-23T15:08:54;17.20;99.90
17483;DHT22;8858;52.308;20.994;2023-03-23T15:11:24;17.10;99.90
17483;DHT22;8858;52.308;20.994;2023-03-23T15:13:55;17.10;99.90
17483;DHT22;8858;52.308;20.994;2023-03-23T15:16:26;17.10;99.90
17483;DHT22;8858;52.308;20.994;2023-03-23T15:18:57;17.10;99.90
17483;DHT22;8858;52.308;20.994;2023-03-23T15:21:29;17.00;99.90
17483;DHT22;8858;52.308;20.994;2023-03-23T15:23:57;17.00;99.90
17483;DHT22;8858;52.308;20.994;2023-03-23T15:26:49;17.00;99.90
17483;DHT22;8858;52.308;20.994;2023-03-23T15:29:18;16.90;99.90
17483;DHT22;8858;52.308;20.994;2023-03-23T15:31:50;16.90;99.90
17483;DHT22;8858;52.308;20.994;2023-03-23T15:34:27;16.90;99.90
17483;DHT22;8858;52.308;20.994;2023-03-23T15:37:00;16.90;99.90
17483;DHT22;8858;52.308;20.994;2023-03-23T15:39:28;16.80;99.90
17483;DHT22;8858;52.308;20.994;2023-03-23T15:41:57;16.80;99.90
17483;DHT22;8858;52.308;20.994;2023-03-23T15:44:28;16.80;99.90
17483;DHT22;8858;52.308;20.994;2023-03-23T15:47:13;16.80;99.90
17483;DHT22;8858;52.308;20.994;2023-03-23T15:49:43;16.80;99.90
17483;DHT22;8858;52.308;20.994;2023-03-23T15:52:12;16.70;99.90
17483;DHT22;8858;52.308;20.994;2023-03-23T15:54:47;16.70;99.90
17483;DHT22;8858;52.308;20.994;2023-03-23T15:57:14;16.70;99.90
17483;DHT22;8858;52.308;20.994;2023-03-23T15:59:45;16.70;99.90
17483;DHT22;8858;52.308;20.994;2023-03-23T16:02:19;16.70;99.90
17483;DHT22;8858;52.308;20.994;2023-03-23T16:04:54;16.70;99.90
17483;DHT22;8858;52.308;20.994;2023-03-23T16:07:23;16.70;99.90
17483;DHT22;8858;52.308;20.994;2023-03-23T16:09:51;16.70;99.90
17483;DHT22;8858;52.308;20.994;2023-03-23T16:12:19;16.60;99.90
17483;DHT22;8858;52.308;20.994;2023-03-23T16:14:47;16.50;99.90
17483;DHT22;8858;52.308;20.994;2023-03-23T16:17:20;16.50;99.90
17483;DHT22;8858;52.308;20.994;2023-03-23T16:19:48;16.50;99.90